sensor_id;sensor_type;location;lat;lon;timestamp;P1;durP1;ratioP1;P2;durP2;ratioP2
61569;SDS011;47462;59.172;17.196;2022-11-15T00:01:32;7.18;;;3.85;;
61569;SDS011;47462;59.172;17.196;2022-11-15T00:03:58;10.93;;;4.15;;
61569;SDS011;47462;59.172;17.196;2022-11-15T00:06:23;5.37;;;3.40;;
61569;SDS011;47462;59.172;17.196;2022-11-15T00:08:49;6.30;;;3.63;;
61569;SDS011;47462;59.172;17.196;2022-11-15T00:11:14;7.22;;;3.28;;
61569;SDS011;47462;59.172;17.196;2022-11-15T00:13:40;7.95;;;3.00;;
61569;SDS011;47462;59.172;17.196;2022-11-15T00:16:05;15.40;;;3.78;;
61569;SDS011;47462;59.172;17.196;2022-11-15T00:18:31;4.47;;;3.20;;
61569;SDS011;47462;59.172;17.196;2022-11-15T00:21:02;8.50;;;3.17;;
61569;SDS011;47462;59.172;17.196;2022-11-15T00:23:30;8.75;;;2.80;;
61569;SDS011;47462;59.172;17.196;2022-11-15T00:25:58;9.63;;;3.10;;
61569;SDS011;47462;59.172;17.196;2022-11-15T00:28:24;6.57;;;3.20;;
61569;SDS011;47462;59.172;17.196;2022-11-15T00:30:50;10.30;;;3.72;;
61569;SDS011;47462;59.172;17.196;2022-11-15T00:33:16;9.15;;;3.13;;
61569;SDS011;47462;59.172;17.196;2022-11-15T00:35:41;5.78;;;2.72;;
61569;SDS011;47462;59.172;17.196;2022-11-15T00:38:07;5.45;;;2.47;;
61569;SDS011;47462;59.172;17.196;2022-11-15T00:40:32;6.38;;;2.72;;
61569;SDS011;47462;59.172;17.196;2022-11-15T00:42:58;6.78;;;3.03;;
61569;SDS011;47462;59.172;17.196;2022-11-15T00:45:24;5.30;;;2.80;;
61569;SDS011;47462;59.172;17.196;2022-11-15T00:47:49;3.42;;;2.53;;
61569;SDS011;47462;59.172;17.196;2022-11-15T00:50:15;6.55;;;2.47;;
61569;SDS011;47462;59.172;17.196;2022-11-15T00:52:41;4.63;;;2.53;;
61569;SDS011;47462;59.172;17.196;2022-11-15T00:55:08;3.80;;;2.17;;
61569;SDS011;47462;59.172;17.196;2022-11-15T00:57:38;4.03;;;2.30;;
61569;SDS011;47462;59.172;17.196;2022-11-15T01:00:03;7.77;;;2.40;;
61569;SDS011;47462;59.172;17.196;2022-11-15T01:02:29;5.80;;;2.55;;
61569;SDS011;47462;59.172;17.196;2022-11-15T01:04:55;4.80;;;2.53;;
61569;SDS011;47462;59.172;17.196;2022-11-15T01:07:20;2.60;;;2.20;;
61569;SDS011;47462;59.172;17.196;2022-11-15T01:09:45;1.40;;;1.30;;
61569;SDS011;47462;59.172;17.196;2022-11-15T01:12:11;2.03;;;1.52;;
61569;SDS011;47462;59.172;17.196;2022-11-15T01:14:36;3.20;;;1.30;;
61569;SDS011;47462;59.172;17.196;2022-11-15T01:17:01;1.97;;;1.20;;
61569;SDS011;47462;59.172;17.196;2022-11-15T01:19:27;2.50;;;1.23;;
61569;SDS011;47462;59.172;17.196;2022-11-15T01:21:52;1.50;;;1.23;;
61569;SDS011;47462;59.172;17.196;2022-11-15T01:24:18;2.17;;;1.07;;
61569;SDS011;47462;59.172;17.196;2022-11-15T01:26:43;2.05;;;1.10;;
61569;SDS011;47462;59.172;17.196;2022-11-15T01:29:09;4.47;;;0.77;;
61569;SDS011;47462;59.172;17.196;2022-11-15T01:31:34;2.20;;;0.77;;
61569;SDS011;47462;59.172;17.196;2022-11-15T01:33:59;3.30;;;1.10;;
61569;SDS011;47462;59.172;17.196;2022-11-15T01:36:25;1.50;;;1.00;;
61569;SDS011;47462;59.172;17.196;2022-11-15T01:38:54;1.63;;;1.00;;
61569;SDS011;47462;59.172;17.196;2022-11-15T01:41:21;1.00;;;0.75;;
61569;SDS011;47462;59.172;17.196;2022-11-15T01:43:50;5.20;;;0.98;;
61569;SDS011;47462;59.172;17.196;2022-11-15T01:49:03;3.22;;;0.95;;
61569;SDS011;47462;59.172;17.196;2022-11-15T01:51:36;2.47;;;0.80;;
61569;SDS011;47462;59.172;17.196;2022-11-15T01:54:04;0.70;;;0.70;;
61569;SDS011;47462;59.172;17.196;2022-11-15T01:56:36;1.23;;;0.82;;
61569;SDS011;47462;59.172;17.196;2022-11-15T01:59:06;0.40;;;0.40;;
61569;SDS011;47462;59.172;17.196;2022-11-15T02:01:33;1.40;;;0.68;;
61569;SDS011;47462;59.172;17.196;2022-11-15T02:04:10;1.50;;;0.63;;
61569;SDS011;47462;59.172;17.196;2022-11-15T02:06:38;0.95;;;0.70;;
61569;SDS011;47462;59.172;17.196;2022-11-15T02:09:06;2.65;;;0.52;;
61569;SDS011;47462;59.172;17.196;2022-11-15T02:11:31;2.38;;;0.52;;
61569;SDS011;47462;59.172;17.196;2022-11-15T02:13:57;1.00;;;0.70;;
61569;SDS011;47462;59.172;17.196;2022-11-15T02:22:02;3.13;;;0.80;;
61569;SDS011;47462;59.172;17.196;2022-11-15T02:33:14;2.58;;;0.80;;
61569;SDS011;47462;59.172;17.196;2022-11-15T02:35:50;0.80;;;0.80;;
61569;SDS011;47462;59.172;17.196;2022-11-15T02:41:11;0.75;;;0.75;;
61569;SDS011;47462;59.172;17.196;2022-11-15T02:46:29;1.45;;;0.60;;
61569;SDS011;47462;59.172;17.196;2022-11-15T02:49:25;0.68;;;0.65;;
61569;SDS011;47462;59.172;17.196;2022-11-15T02:51:53;2.45;;;0.80;;
61569;SDS011;47462;59.172;17.196;2022-11-15T02:54:23;0.35;;;0.35;;
61569;SDS011;47462;59.172;17.196;2022-11-15T02:56:51;1.95;;;0.40;;
61569;SDS011;47462;59.172;17.196;2022-11-15T03:07:16;0.50;;;0.40;;
61569;SDS011;47462;59.172;17.196;2022-11-15T03:12:54;0.40;;;0.35;;
61569;SDS011;47462;59.172;17.196;2022-11-15T03:15:30;2.10;;;0.65;;
61569;SDS011;47462;59.172;17.196;2022-11-15T03:18:03;1.13;;;1.02;;
61569;SDS011;47462;59.172;17.196;2022-11-15T03:20:32;1.35;;;1.13;;
61569;SDS011;47462;59.172;17.196;2022-11-15T03:23:04;2.20;;;2.00;;
61569;SDS011;47462;59.172;17.196;2022-11-15T03:25:32;2.53;;;1.65;;
61569;SDS011;47462;59.172;17.196;2022-11-15T03:28:00;3.75;;;0.90;;
61569;SDS011;47462;59.172;17.196;2022-11-15T03:30:30;0.93;;;0.77;;
61569;SDS011;47462;59.172;17.196;2022-11-15T03:32:58;0.80;;;0.80;;
61569;SDS011;47462;59.172;17.196;2022-11-15T03:35:30;1.58;;;1.00;;
61569;SDS011;47462;59.172;17.196;2022-11-15T03:40:58;1.42;;;1.17;;
61569;SDS011;47462;59.172;17.196;2022-11-15T03:46:25;2.95;;;1.23;;
61569;SDS011;47462;59.172;17.196;2022-11-15T03:49:09;3.03;;;1.23;;
61569;SDS011;47462;59.172;17.196;2022-11-15T03:51:40;1.67;;;1.23;;
61569;SDS011;47462;59.172;17.196;2022-11-15T03:54:05;2.08;;;1.10;;
61569;SDS011;47462;59.172;17.196;2022-11-15T03:56:31;2.25;;;1.50;;
61569;SDS011;47462;59.172;17.196;2022-11-15T03:58:57;1.40;;;1.30;;
61569;SDS011;47462;59.172;17.196;2022-11-15T04:01:22;3.78;;;1.58;;
61569;SDS011;47462;59.172;17.196;2022-11-15T04:03:48;1.90;;;1.77;;
61569;SDS011;47462;59.172;17.196;2022-11-15T04:06:13;2.73;;;2.00;;
61569;SDS011;47462;59.172;17.196;2022-11-15T04:08:39;2.87;;;1.53;;
61569;SDS011;47462;59.172;17.196;2022-11-15T04:11:04;1.53;;;1.40;;
61569;SDS011;47462;59.172;17.196;2022-11-15T04:13:30;3.00;;;1.13;;
61569;SDS011;47462;59.172;17.196;2022-11-15T04:15:55;1.70;;;1.60;;
61569;SDS011;47462;59.172;17.196;2022-11-15T04:18:20;2.70;;;1.87;;
61569;SDS011;47462;59.172;17.196;2022-11-15T04:20:46;2.10;;;1.77;;
61569;SDS011;47462;59.172;17.196;2022-11-15T04:23:30;2.05;;;1.80;;
61569;SDS011;47462;59.172;17.196;2022-11-15T04:26:30;6.38;;;2.30;;
61569;SDS011;47462;59.172;17.196;2022-11-15T04:28:56;2.45;;;2.25;;
61569;SDS011;47462;59.172;17.196;2022-11-15T04:31:40;3.33;;;2.63;;
61569;SDS011;47462;59.172;17.196;2022-11-15T04:34:05;2.40;;;1.90;;
61569;SDS011;47462;59.172;17.196;2022-11-15T04:36:31;3.70;;;2.20;;
61569;SDS011;47462;59.172;17.196;2022-11-15T04:39:15;6.03;;;3.70;;
61569;SDS011;47462;59.172;17.196;2022-11-15T04:41:40;3.77;;;2.20;;
61569;SDS011;47462;59.172;17.196;2022-11-15T04:44:05;3.37;;;2.00;;
61569;SDS011;47462;59.172;17.196;2022-11-15T04:46:31;4.47;;;2.13;;
61569;SDS011;47462;59.172;17.196;2022-11-15T04:48:56;3.20;;;2.07;;
61569;SDS011;47462;59.172;17.196;2022-11-15T04:51:22;4.93;;;2.00;;
61569;SDS011;47462;59.172;17.196;2022-11-15T04:53:47;3.30;;;2.23;;
61569;SDS011;47462;59.172;17.196;2022-11-15T04:56:12;3.60;;;2.10;;
61569;SDS011;47462;59.172;17.196;2022-11-15T04:58:38;2.43;;;2.10;;
61569;SDS011;47462;59.172;17.196;2022-11-15T05:01:09;2.23;;;1.90;;
61569;SDS011;47462;59.172;17.196;2022-11-15T05:03:40;2.10;;;1.90;;
61569;SDS011;47462;59.172;17.196;2022-11-15T05:06:24;3.42;;;1.60;;
61569;SDS011;47462;59.172;17.196;2022-11-15T05:08:50;2.35;;;1.60;;
61569;SDS011;47462;59.172;17.196;2022-11-15T05:11:15;3.63;;;1.50;;
61569;SDS011;47462;59.172;17.196;2022-11-15T05:13:41;2.33;;;1.53;;
61569;SDS011;47462;59.172;17.196;2022-11-15T05:16:06;2.72;;;1.10;;
61569;SDS011;47462;59.172;17.196;2022-11-15T05:18:31;2.17;;;1.60;;
61569;SDS011;47462;59.172;17.196;2022-11-15T05:21:03;1.47;;;1.10;;
61569;SDS011;47462;59.172;17.196;2022-11-15T05:23:29;3.95;;;1.40;;
61569;SDS011;47462;59.172;17.196;2022-11-15T05:25:58;2.60;;;1.30;;
61569;SDS011;47462;59.172;17.196;2022-11-15T05:28:24;2.15;;;1.38;;
61569;SDS011;47462;59.172;17.196;2022-11-15T05:30:50;1.50;;;1.17;;
61569;SDS011;47462;59.172;17.196;2022-11-15T05:33:15;2.60;;;1.57;;
61569;SDS011;47462;59.172;17.196;2022-11-15T05:35:41;3.03;;;1.35;;
61569;SDS011;47462;59.172;17.196;2022-11-15T05:38:11;4.40;;;1.52;;
61569;SDS011;47462;59.172;17.196;2022-11-15T05:40:36;2.80;;;1.73;;
61569;SDS011;47462;59.172;17.196;2022-11-15T05:43:01;2.97;;;1.33;;
61569;SDS011;47462;59.172;17.196;2022-11-15T05:45:29;3.47;;;1.60;;
61569;SDS011;47462;59.172;17.196;2022-11-15T05:47:56;7.10;;;1.40;;
61569;SDS011;47462;59.172;17.196;2022-11-15T05:50:25;2.90;;;1.60;;
61569;SDS011;47462;59.172;17.196;2022-11-15T05:52:50;3.58;;;1.70;;
61569;SDS011;47462;59.172;17.196;2022-11-15T05:55:16;4.30;;;1.50;;
61569;SDS011;47462;59.172;17.196;2022-11-15T05:57:42;3.08;;;1.60;;
61569;SDS011;47462;59.172;17.196;2022-11-15T06:00:08;4.35;;;1.38;;
61569;SDS011;47462;59.172;17.196;2022-11-15T06:02:34;2.22;;;1.60;;
61569;SDS011;47462;59.172;17.196;2022-11-15T06:04:59;1.98;;;1.35;;
61569;SDS011;47462;59.172;17.196;2022-11-15T06:07:25;2.10;;;1.07;;
61569;SDS011;47462;59.172;17.196;2022-11-15T06:09:50;4.67;;;1.70;;
61569;SDS011;47462;59.172;17.196;2022-11-15T06:12:16;4.10;;;1.52;;
61569;SDS011;47462;59.172;17.196;2022-11-15T06:14:41;3.83;;;2.67;;
61569;SDS011;47462;59.172;17.196;2022-11-15T06:17:06;4.67;;;1.37;;
61569;SDS011;47462;59.172;17.196;2022-11-15T06:19:32;6.15;;;1.75;;
61569;SDS011;47462;59.172;17.196;2022-11-15T06:21:58;7.10;;;1.35;;
61569;SDS011;47462;59.172;17.196;2022-11-15T06:24:24;1.65;;;1.20;;
61569;SDS011;47462;59.172;17.196;2022-11-15T06:26:50;2.03;;;1.20;;
61569;SDS011;47462;59.172;17.196;2022-11-15T06:29:15;4.97;;;1.13;;
61569;SDS011;47462;59.172;17.196;2022-11-15T06:31:40;1.90;;;0.73;;
61569;SDS011;47462;59.172;17.196;2022-11-15T06:34:06;4.07;;;1.05;;
61569;SDS011;47462;59.172;17.196;2022-11-15T06:36:33;3.65;;;0.98;;
61569;SDS011;47462;59.172;17.196;2022-11-15T06:38:59;2.13;;;0.88;;
61569;SDS011;47462;59.172;17.196;2022-11-15T06:41:25;5.30;;;0.93;;
61569;SDS011;47462;59.172;17.196;2022-11-15T06:43:50;5.03;;;1.03;;
61569;SDS011;47462;59.172;17.196;2022-11-15T06:46:16;4.73;;;0.87;;
61569;SDS011;47462;59.172;17.196;2022-11-15T06:48:41;1.70;;;0.98;;
61569;SDS011;47462;59.172;17.196;2022-11-15T06:51:07;3.85;;;1.00;;
61569;SDS011;47462;59.172;17.196;2022-11-15T06:53:33;7.28;;;1.15;;
61569;SDS011;47462;59.172;17.196;2022-11-15T06:56:02;4.25;;;0.90;;
61569;SDS011;47462;59.172;17.196;2022-11-15T06:58:29;2.22;;;0.75;;
61569;SDS011;47462;59.172;17.196;2022-11-15T07:01:06;1.65;;;0.60;;
61569;SDS011;47462;59.172;17.196;2022-11-15T07:03:34;5.18;;;0.77;;
61569;SDS011;47462;59.172;17.196;2022-11-15T07:06:01;2.28;;;0.60;;
61569;SDS011;47462;59.172;17.196;2022-11-15T07:08:26;3.28;;;0.60;;
61569;SDS011;47462;59.172;17.196;2022-11-15T07:10:53;3.63;;;0.90;;
61569;SDS011;47462;59.172;17.196;2022-11-15T07:13:19;4.80;;;1.10;;
61569;SDS011;47462;59.172;17.196;2022-11-15T07:15:44;4.20;;;0.70;;
61569;SDS011;47462;59.172;17.196;2022-11-15T07:18:09;2.95;;;1.45;;
61569;SDS011;47462;59.172;17.196;2022-11-15T07:20:35;1.57;;;0.50;;
61569;SDS011;47462;59.172;17.196;2022-11-15T07:23:03;2.70;;;0.73;;
61569;SDS011;47462;59.172;17.196;2022-11-15T07:25:30;1.23;;;0.63;;
61569;SDS011;47462;59.172;17.196;2022-11-15T07:27:56;1.88;;;0.63;;
61569;SDS011;47462;59.172;17.196;2022-11-15T07:30:23;5.20;;;1.58;;
61569;SDS011;47462;59.172;17.196;2022-11-15T07:32:55;1.08;;;0.60;;
61569;SDS011;47462;59.172;17.196;2022-11-15T07:35:22;5.38;;;1.10;;
61569;SDS011;47462;59.172;17.196;2022-11-15T07:37:58;2.38;;;0.80;;
61569;SDS011;47462;59.172;17.196;2022-11-15T07:40:28;1.63;;;0.70;;
61569;SDS011;47462;59.172;17.196;2022-11-15T07:43:02;1.60;;;0.57;;
61569;SDS011;47462;59.172;17.196;2022-11-15T07:45:28;3.65;;;0.90;;
61569;SDS011;47462;59.172;17.196;2022-11-15T07:47:54;2.72;;;0.77;;
61569;SDS011;47462;59.172;17.196;2022-11-15T07:52:47;5.10;;;0.95;;
61569;SDS011;47462;59.172;17.196;2022-11-15T07:55:12;5.10;;;1.10;;
61569;SDS011;47462;59.172;17.196;2022-11-15T07:57:37;1.30;;;0.60;;
61569;SDS011;47462;59.172;17.196;2022-11-15T08:00:04;2.67;;;1.17;;
61569;SDS011;47462;59.172;17.196;2022-11-15T08:02:30;4.57;;;0.82;;
61569;SDS011;47462;59.172;17.196;2022-11-15T08:04:55;2.15;;;0.60;;
61569;SDS011;47462;59.172;17.196;2022-11-15T08:07:21;4.07;;;1.70;;
61569;SDS011;47462;59.172;17.196;2022-11-15T08:09:46;4.27;;;0.80;;
61569;SDS011;47462;59.172;17.196;2022-11-15T08:12:12;4.13;;;0.70;;
61569;SDS011;47462;59.172;17.196;2022-11-15T08:14:37;6.37;;;0.90;;
61569;SDS011;47462;59.172;17.196;2022-11-15T08:17:03;4.65;;;1.20;;
61569;SDS011;47462;59.172;17.196;2022-11-15T08:19:28;1.90;;;0.60;;
61569;SDS011;47462;59.172;17.196;2022-11-15T08:21:54;1.07;;;0.40;;
61569;SDS011;47462;59.172;17.196;2022-11-15T08:24:19;3.10;;;0.60;;
61569;SDS011;47462;59.172;17.196;2022-11-15T08:26:45;1.52;;;0.40;;
61569;SDS011;47462;59.172;17.196;2022-11-15T08:29:10;3.00;;;0.70;;
61569;SDS011;47462;59.172;17.196;2022-11-15T08:31:36;2.00;;;0.40;;
61569;SDS011;47462;59.172;17.196;2022-11-15T08:34:05;0.85;;;0.43;;
61569;SDS011;47462;59.172;17.196;2022-11-15T08:36:31;3.20;;;0.57;;
61569;SDS011;47462;59.172;17.196;2022-11-15T08:38:56;2.67;;;0.30;;
61569;SDS011;47462;59.172;17.196;2022-11-15T08:41:30;1.53;;;0.50;;
61569;SDS011;47462;59.172;17.196;2022-11-15T08:43:57;2.50;;;0.50;;
61569;SDS011;47462;59.172;17.196;2022-11-15T08:46:22;2.65;;;0.50;;
61569;SDS011;47462;59.172;17.196;2022-11-15T08:48:48;3.08;;;0.57;;
61569;SDS011;47462;59.172;17.196;2022-11-15T08:51:14;7.00;;;0.67;;
61569;SDS011;47462;59.172;17.196;2022-11-15T08:53:40;1.30;;;0.30;;
61569;SDS011;47462;59.172;17.196;2022-11-15T08:56:09;3.35;;;0.63;;
61569;SDS011;47462;59.172;17.196;2022-11-15T08:58:35;4.13;;;0.98;;
61569;SDS011;47462;59.172;17.196;2022-11-15T09:01:02;2.53;;;0.60;;
61569;SDS011;47462;59.172;17.196;2022-11-15T09:03:28;3.38;;;0.73;;
61569;SDS011;47462;59.172;17.196;2022-11-15T09:05:57;1.60;;;0.30;;
61569;SDS011;47462;59.172;17.196;2022-11-15T09:08:25;2.63;;;0.60;;
61569;SDS011;47462;59.172;17.196;2022-11-15T09:10:54;3.38;;;0.57;;
61569;SDS011;47462;59.172;17.196;2022-11-15T09:13:19;2.00;;;0.40;;
61569;SDS011;47462;59.172;17.196;2022-11-15T09:15:44;3.93;;;0.50;;
61569;SDS011;47462;59.172;17.196;2022-11-15T09:18:10;2.67;;;0.33;;
61569;SDS011;47462;59.172;17.196;2022-11-15T09:20:35;2.73;;;0.50;;
61569;SDS011;47462;59.172;17.196;2022-11-15T09:23:02;2.23;;;0.50;;
61569;SDS011;47462;59.172;17.196;2022-11-15T09:25:28;3.90;;;0.40;;
61569;SDS011;47462;59.172;17.196;2022-11-15T09:27:54;4.38;;;0.80;;
61569;SDS011;47462;59.172;17.196;2022-11-15T09:30:20;2.00;;;0.40;;
61569;SDS011;47462;59.172;17.196;2022-11-15T09:32:46;0.77;;;0.25;;
61569;SDS011;47462;59.172;17.196;2022-11-15T09:35:11;2.17;;;0.30;;
61569;SDS011;47462;59.172;17.196;2022-11-15T09:37:36;4.13;;;0.77;;
61569;SDS011;47462;59.172;17.196;2022-11-15T09:40:02;1.75;;;0.32;;
61569;SDS011;47462;59.172;17.196;2022-11-15T09:55:40;1.15;;;0.30;;
61569;SDS011;47462;59.172;17.196;2022-11-15T09:58:28;4.57;;;0.43;;
61569;SDS011;47462;59.172;17.196;2022-11-15T10:01:03;1.80;;;0.40;;
61569;SDS011;47462;59.172;17.196;2022-11-15T10:03:34;2.70;;;0.40;;
61569;SDS011;47462;59.172;17.196;2022-11-15T10:06:08;3.78;;;0.63;;
61569;SDS011;47462;59.172;17.196;2022-11-15T10:08:46;0.68;;;0.35;;
61569;SDS011;47462;59.172;17.196;2022-11-15T10:11:23;0.47;;;0.20;;
61569;SDS011;47462;59.172;17.196;2022-11-15T10:13:51;4.47;;;0.47;;
61569;SDS011;47462;59.172;17.196;2022-11-15T10:24:12;2.33;;;0.40;;
61569;SDS011;47462;59.172;17.196;2022-11-15T10:26:45;1.98;;;0.30;;
61569;SDS011;47462;59.172;17.196;2022-11-15T10:29:17;2.28;;;0.30;;
61569;SDS011;47462;59.172;17.196;2022-11-15T10:31:46;4.90;;;0.50;;
61569;SDS011;47462;59.172;17.196;2022-11-15T10:34:16;3.25;;;0.35;;
61569;SDS011;47462;59.172;17.196;2022-11-15T10:36:53;3.05;;;0.32;;
61569;SDS011;47462;59.172;17.196;2022-11-15T10:39:24;3.70;;;0.40;;
61569;SDS011;47462;59.172;17.196;2022-11-15T10:41:50;1.40;;;0.40;;
61569;SDS011;47462;59.172;17.196;2022-11-15T10:46:41;2.13;;;0.47;;
61569;SDS011;47462;59.172;17.196;2022-11-15T10:49:15;1.77;;;0.60;;
61569;SDS011;47462;59.172;17.196;2022-11-15T10:54:35;1.92;;;0.30;;
61569;SDS011;47462;59.172;17.196;2022-11-15T10:57:06;1.05;;;0.22;;
61569;SDS011;47462;59.172;17.196;2022-11-15T10:59:44;3.22;;;0.65;;
61569;SDS011;47462;59.172;17.196;2022-11-15T11:05:29;1.52;;;0.28;;
61569;SDS011;47462;59.172;17.196;2022-11-15T11:07:56;1.27;;;0.35;;
61569;SDS011;47462;59.172;17.196;2022-11-15T11:10:23;2.72;;;0.28;;
61569;SDS011;47462;59.172;17.196;2022-11-15T11:12:49;1.50;;;0.35;;
61569;SDS011;47462;59.172;17.196;2022-11-15T11:15:15;1.80;;;0.35;;
61569;SDS011;47462;59.172;17.196;2022-11-15T11:17:49;0.70;;;0.30;;
61569;SDS011;47462;59.172;17.196;2022-11-15T11:31:28;2.42;;;0.40;;
61569;SDS011;47462;59.172;17.196;2022-11-15T11:34:14;3.55;;;0.40;;
61569;SDS011;47462;59.172;17.196;2022-11-15T11:39:32;1.58;;;0.40;;
61569;SDS011;47462;59.172;17.196;2022-11-15T11:45:44;1.30;;;0.40;;
61569;SDS011;47462;59.172;17.196;2022-11-15T11:48:40;2.08;;;0.45;;
61569;SDS011;47462;59.172;17.196;2022-11-15T11:51:16;0.80;;;0.50;;
61569;SDS011;47462;59.172;17.196;2022-11-15T11:53:52;1.75;;;0.60;;
61569;SDS011;47462;59.172;17.196;2022-11-15T11:56:28;2.97;;;0.52;;
61569;SDS011;47462;59.172;17.196;2022-11-15T11:59:00;4.30;;;1.08;;
61569;SDS011;47462;59.172;17.196;2022-11-15T12:01:40;1.95;;;0.50;;
61569;SDS011;47462;59.172;17.196;2022-11-15T12:09:27;1.70;;;0.47;;
61569;SDS011;47462;59.172;17.196;2022-11-15T12:11:58;0.77;;;0.40;;
61569;SDS011;47462;59.172;17.196;2022-11-15T12:15:29;1.35;;;0.47;;
61569;SDS011;47462;59.172;17.196;2022-11-15T12:17:39;1.67;;;0.52;;
61569;SDS011;47462;59.172;17.196;2022-11-15T12:20:14;1.17;;;0.30;;
61569;SDS011;47462;59.172;17.196;2022-11-15T12:22:43;2.38;;;0.50;;
61569;SDS011;47462;59.172;17.196;2022-11-15T12:25:18;1.58;;;0.47;;
61569;SDS011;47462;59.172;17.196;2022-11-15T12:30:21;2.83;;;0.75;;
61569;SDS011;47462;59.172;17.196;2022-11-15T12:32:58;2.58;;;0.50;;
61569;SDS011;47462;59.172;17.196;2022-11-15T12:35:35;5.70;;;0.88;;
61569;SDS011;47462;59.172;17.196;2022-11-15T12:38:08;2.05;;;0.57;;
61569;SDS011;47462;59.172;17.196;2022-11-15T12:40:35;0.63;;;0.60;;
61569;SDS011;47462;59.172;17.196;2022-11-15T12:45:41;1.13;;;0.40;;
61569;SDS011;47462;59.172;17.196;2022-11-15T12:50:53;1.58;;;0.40;;
61569;SDS011;47462;59.172;17.196;2022-11-15T12:58:45;2.10;;;0.55;;
61569;SDS011;47462;59.172;17.196;2022-11-15T13:02:18;4.57;;;0.80;;
61569;SDS011;47462;59.172;17.196;2022-11-15T13:06:45;2.38;;;0.50;;
61569;SDS011;47462;59.172;17.196;2022-11-15T13:11:54;1.02;;;0.45;;
61569;SDS011;47462;59.172;17.196;2022-11-15T13:17:16;4.18;;;0.47;;
61569;SDS011;47462;59.172;17.196;2022-11-15T13:19:52;1.75;;;0.45;;
61569;SDS011;47462;59.172;17.196;2022-11-15T13:30:52;1.67;;;0.60;;
61569;SDS011;47462;59.172;17.196;2022-11-15T13:33:24;2.90;;;0.65;;
61569;SDS011;47462;59.172;17.196;2022-11-15T13:35:55;2.08;;;0.55;;
61569;SDS011;47462;59.172;17.196;2022-11-15T13:41:17;1.73;;;0.40;;
61569;SDS011;47462;59.172;17.196;2022-11-15T13:43:45;2.13;;;0.60;;
61569;SDS011;47462;59.172;17.196;2022-11-15T13:46:21;2.20;;;0.52;;
61569;SDS011;47462;59.172;17.196;2022-11-15T13:48:59;1.38;;;0.40;;
61569;SDS011;47462;59.172;17.196;2022-11-15T13:51:44;3.40;;;0.70;;
61569;SDS011;47462;59.172;17.196;2022-11-15T13:54:16;0.50;;;0.40;;
61569;SDS011;47462;59.172;17.196;2022-11-15T13:56:51;3.10;;;0.63;;
61569;SDS011;47462;59.172;17.196;2022-11-15T13:59:33;1.02;;;0.43;;
61569;SDS011;47462;59.172;17.196;2022-11-15T14:02:15;3.20;;;0.43;;
61569;SDS011;47462;59.172;17.196;2022-11-15T14:04:46;2.08;;;0.60;;
61569;SDS011;47462;59.172;17.196;2022-11-15T14:07:19;1.08;;;0.50;;
61569;SDS011;47462;59.172;17.196;2022-11-15T14:09:47;4.90;;;0.85;;
61569;SDS011;47462;59.172;17.196;2022-11-15T14:12:27;2.58;;;0.50;;
61569;SDS011;47462;59.172;17.196;2022-11-15T14:14:55;1.55;;;0.65;;
61569;SDS011;47462;59.172;17.196;2022-11-15T14:17:32;1.63;;;0.55;;
61569;SDS011;47462;59.172;17.196;2022-11-15T14:20:00;2.85;;;0.63;;
61569;SDS011;47462;59.172;17.196;2022-11-15T14:22:26;1.88;;;0.68;;
61569;SDS011;47462;59.172;17.196;2022-11-15T14:25:04;0.98;;;0.40;;
61569;SDS011;47462;59.172;17.196;2022-11-15T14:27:33;2.53;;;0.43;;
61569;SDS011;47462;59.172;17.196;2022-11-15T14:30:00;1.65;;;0.70;;
61569;SDS011;47462;59.172;17.196;2022-11-15T14:32:27;0.95;;;0.50;;
61569;SDS011;47462;59.172;17.196;2022-11-15T14:35:00;2.88;;;1.00;;
61569;SDS011;47462;59.172;17.196;2022-11-15T14:40:00;2.17;;;0.70;;
61569;SDS011;47462;59.172;17.196;2022-11-15T14:42:27;1.95;;;1.20;;
61569;SDS011;47462;59.172;17.196;2022-11-15T14:44:52;1.55;;;0.55;;
61569;SDS011;47462;59.172;17.196;2022-11-15T14:47:18;4.65;;;1.02;;
61569;SDS011;47462;59.172;17.196;2022-11-15T14:49:44;8.20;;;1.65;;
61569;SDS011;47462;59.172;17.196;2022-11-15T14:52:29;2.20;;;0.60;;
61569;SDS011;47462;59.172;17.196;2022-11-15T14:54:59;0.80;;;0.80;;
61569;SDS011;47462;59.172;17.196;2022-11-15T14:57:27;1.20;;;0.55;;
61569;SDS011;47462;59.172;17.196;2022-11-15T14:59:53;2.35;;;0.52;;
61569;SDS011;47462;59.172;17.196;2022-11-15T15:02:22;3.05;;;0.73;;
61569;SDS011;47462;59.172;17.196;2022-11-15T15:04:49;2.65;;;2.45;;
61569;SDS011;47462;59.172;17.196;2022-11-15T15:07:15;2.45;;;0.90;;
61569;SDS011;47462;59.172;17.196;2022-11-15T15:09:41;2.45;;;0.70;;
61569;SDS011;47462;59.172;17.196;2022-11-15T15:12:20;1.13;;;0.50;;
61569;SDS011;47462;59.172;17.196;2022-11-15T15:14:48;4.68;;;0.73;;
61569;SDS011;47462;59.172;17.196;2022-11-15T15:17:15;3.67;;;0.70;;
61569;SDS011;47462;59.172;17.196;2022-11-15T15:19:41;0.75;;;0.60;;
61569;SDS011;47462;59.172;17.196;2022-11-15T15:22:11;1.88;;;0.73;;
61569;SDS011;47462;59.172;17.196;2022-11-15T15:24:40;4.63;;;0.80;;
61569;SDS011;47462;59.172;17.196;2022-11-15T15:27:06;1.63;;;0.50;;
61569;SDS011;47462;59.172;17.196;2022-11-15T15:29:31;2.58;;;0.70;;
61569;SDS011;47462;59.172;17.196;2022-11-15T15:31:57;2.47;;;0.90;;
61569;SDS011;47462;59.172;17.196;2022-11-15T15:34:22;3.27;;;0.70;;
61569;SDS011;47462;59.172;17.196;2022-11-15T15:36:48;2.38;;;0.95;;
61569;SDS011;47462;59.172;17.196;2022-11-15T15:39:13;2.47;;;0.80;;
61569;SDS011;47462;59.172;17.196;2022-11-15T15:41:38;2.70;;;0.63;;
61569;SDS011;47462;59.172;17.196;2022-11-15T15:44:04;2.33;;;0.70;;
61569;SDS011;47462;59.172;17.196;2022-11-15T15:46:29;4.90;;;1.43;;
61569;SDS011;47462;59.172;17.196;2022-11-15T15:48:55;1.37;;;0.60;;
61569;SDS011;47462;59.172;17.196;2022-11-15T15:51:20;1.87;;;0.70;;
61569;SDS011;47462;59.172;17.196;2022-11-15T15:53:46;1.88;;;0.95;;
61569;SDS011;47462;59.172;17.196;2022-11-15T15:58:37;2.72;;;0.57;;
61569;SDS011;47462;59.172;17.196;2022-11-15T16:01:02;3.80;;;0.70;;
61569;SDS011;47462;59.172;17.196;2022-11-15T16:03:28;2.75;;;0.57;;
61569;SDS011;47462;59.172;17.196;2022-11-15T16:05:54;3.25;;;0.47;;
61569;SDS011;47462;59.172;17.196;2022-11-15T16:08:20;3.22;;;0.63;;
61569;SDS011;47462;59.172;17.196;2022-11-15T16:10:48;1.30;;;0.60;;
61569;SDS011;47462;59.172;17.196;2022-11-15T16:13:14;1.15;;;0.55;;
61569;SDS011;47462;59.172;17.196;2022-11-15T16:15:39;3.08;;;0.50;;
61569;SDS011;47462;59.172;17.196;2022-11-15T16:18:05;1.45;;;0.68;;
61569;SDS011;47462;59.172;17.196;2022-11-15T16:23:02;2.03;;;0.70;;
61569;SDS011;47462;59.172;17.196;2022-11-15T16:25:29;0.88;;;0.50;;
61569;SDS011;47462;59.172;17.196;2022-11-15T16:27:58;2.15;;;0.90;;
61569;SDS011;47462;59.172;17.196;2022-11-15T16:30:24;2.03;;;0.77;;
61569;SDS011;47462;59.172;17.196;2022-11-15T16:32:49;1.63;;;0.53;;
61569;SDS011;47462;59.172;17.196;2022-11-15T16:35:15;1.40;;;0.70;;
61569;SDS011;47462;59.172;17.196;2022-11-15T16:37:41;1.58;;;0.40;;
61569;SDS011;47462;59.172;17.196;2022-11-15T16:40:30;1.63;;;0.57;;
61569;SDS011;47462;59.172;17.196;2022-11-15T16:42:58;4.30;;;0.52;;
61569;SDS011;47462;59.172;17.196;2022-11-15T16:45:27;2.05;;;0.43;;
61569;SDS011;47462;59.172;17.196;2022-11-15T16:47:53;0.80;;;0.30;;
61569;SDS011;47462;59.172;17.196;2022-11-15T16:52:53;2.05;;;0.50;;
61569;SDS011;47462;59.172;17.196;2022-11-15T16:55:21;0.70;;;0.45;;
61569;SDS011;47462;59.172;17.196;2022-11-15T16:57:48;1.85;;;0.40;;
61569;SDS011;47462;59.172;17.196;2022-11-15T17:00:14;2.75;;;0.82;;